Time;durP1;ratioP1;P1;durP2;ratioP2;P2;SDS_P1;SDS_P2;PMS_P1;PMS_P2;Temp;Humidity;BMP_temperature;BMP_pressure;BME280_temperature;BME280_humidity;BME280_pressure;Samples;Min_cycle;Max_cycle;Signal;HPM_P1;HPM_P2
2022/04/30 00:00:14;;;;;;;5.30;1.60;;;;;;;24.14;26.56;101592.41;5033386;28;20023;-48
2022/04/30 00:02:40;;;;;;;5.63;2.00;;;;;;;24.39;26.90;101596.19;5034283;28;20034;-49
2022/04/30 00:05:07;;;;;;;3.42;1.55;;;;;;;24.50;27.83;101584.09;5034277;28;20053;-49
2022/04/30 00:07:33;;;;;;;2.72;1.60;;;;;;;24.24;26.95;101577.88;5034260;28;20025;-47
2022/04/30 00:09:59;;;;;;;2.85;1.80;;;;;;;23.78;30.63;101580.75;5034300;28;20385;-46
2022/04/30 00:12:25;;;;;;;4.88;1.75;;;;;;;23.03;31.11;101583.19;5034524;28;20049;-48
2022/04/30 00:14:54;;;;;;;6.57;2.03;;;;;;;23.15;30.40;101580.19;5034838;28;20089;-46
2022/04/30 00:17:20;;;;;;;4.90;1.70;;;;;;;22.86;29.98;101577.94;5034371;28;20030;-46
2022/04/30 00:19:46;;;;;;;3.35;1.60;;;;;;;23.30;30.95;101588.41;5034227;28;20025;-48
2022/04/30 00:22:12;;;;;;;4.55;2.08;;;;;;;22.83;30.41;101581.25;5033902;28;20053;-46
2022/04/30 00:24:39;;;;;;;5.03;1.50;;;;;;;22.29;30.95;101573.44;5034728;28;20038;-46
2022/04/30 00:27:05;;;;;;;4.45;1.75;;;;;;;22.50;31.60;101576.25;5034136;28;20107;-46
2022/04/30 00:29:32;;;;;;;3.97;1.45;;;;;;;22.91;32.67;101578.00;5033768;28;20510;-46
2022/04/30 00:32:02;;;;;;;4.53;2.03;;;;;;;22.97;28.27;101570.63;5034784;28;20116;-47
2022/04/30 00:34:28;;;;;;;10.73;9.63;;;;;;;22.96;27.43;101571.72;5033834;28;20029;-49
2022/04/30 00:36:56;;;;;;;5.07;2.38;;;;;;;22.89;26.77;101569.28;5034048;28;20025;-46
2022/04/30 00:39:22;;;;;;;8.45;1.50;;;;;;;22.75;27.50;101572.75;5033796;28;20029;-45
2022/04/30 00:41:48;;;;;;;2.83;1.20;;;;;;;22.64;27.05;101563.72;5033872;28;20034;-48
2022/04/30 00:44:18;;;;;;;2.60;1.02;;;;;;;22.40;27.91;101566.09;5033968;28;20446;-47
2022/04/30 00:46:45;;;;;;;2.47;1.00;;;;;;;22.25;27.25;101575.03;5033809;28;20083;-50
2022/04/30 00:49:11;;;;;;;3.63;1.35;;;;;;;22.14;27.64;101563.25;5033768;28;20482;-50
2022/04/30 00:51:39;;;;;;;1.50;0.98;;;;;;;22.00;27.78;101567.53;5033615;28;20079;-50
2022/04/30 00:54:07;;;;;;;2.47;1.35;;;;;;;22.03;27.70;101567.00;5033658;28;20041;-49
2022/04/30 00:56:38;;;;;;;3.15;1.92;;;;;;;22.08;28.26;101563.47;5033665;28;20057;-51
2022/04/30 00:59:06;;;;;;;5.50;2.42;;;;;;;21.70;27.34;101560.00;5033815;28;20088;-49
2022/04/30 01:01:35;;;;;;;3.22;1.42;;;;;;;21.76;27.13;101552.66;5033448;28;20030;-50
2022/04/30 01:04:01;;;;;;;4.20;1.50;;;;;;;21.68;27.55;101554.00;5033356;28;20067;-49
2022/04/30 01:06:50;;;;;;;3.33;1.00;;;;;;;21.66;27.11;101550.72;5033898;28;20021;-50
2022/04/30 01:09:23;;;;;;;2.85;1.48;;;;;;;21.29;27.69;101548.81;5033317;28;20029;-50
2022/04/30 01:11:57;;;;;;;3.55;1.27;;;;;;;21.24;28.25;101542.47;5032806;28;20030;-46
2022/04/30 01:14:29;;;;;;;2.15;1.20;;;;;;;21.43;28.25;101542.91;5032924;28;20029;-49
2022/04/30 01:16:59;;;;;;;4.55;1.58;;;;;;;21.38;27.84;101531.97;5032746;28;20037;-47
2022/04/30 01:19:27;;;;;;;2.65;1.50;;;;;;;21.40;29.35;101532.56;5033130;28;20079;-48
2022/04/30 01:22:00;;;;;;;3.17;1.67;;;;;;;21.53;29.52;101534.81;5033160;28;20028;-50
2022/04/30 01:24:28;;;;;;;4.97;1.98;;;;;;;21.62;29.72;101530.53;5032945;28;20529;-48
2022/04/30 01:26:56;;;;;;;5.93;1.35;;;;;;;21.73;29.86;101524.06;5032987;28;20052;-51
2022/04/30 01:29:24;;;;;;;3.63;1.63;;;;;;;21.75;28.61;101524.59;5032824;28;20059;-50
2022/04/30 01:37:24;;;;;;;3.45;1.20;;;;;;;21.76;28.39;101520.78;5032669;28;20133;-47
2022/04/30 01:40:03;;;;;;;3.75;1.00;;;;;;;21.80;27.94;101521.09;5033036;28;20128;-48
2022/04/30 01:42:35;;;;;;;3.30;1.30;;;;;;;21.83;28.39;101521.41;5032928;28;20485;-47
2022/04/30 01:45:05;;;;;;;4.03;1.38;;;;;;;21.66;28.08;101522.66;5032683;28;20104;-47
2022/04/30 01:47:34;;;;;;;3.33;1.20;;;;;;;21.45;29.12;101521.72;5033073;28;20021;-47
2022/04/30 01:50:00;;;;;;;2.13;1.30;;;;;;;21.53;27.92;101522.03;5033053;28;20048;-47
2022/04/30 01:52:27;;;;;;;3.83;1.42;;;;;;;21.68;28.92;101515.84;5032565;28;20029;-49
2022/04/30 01:54:53;;;;;;;4.30;1.40;;;;;;;21.74;28.81;101512.06;5032948;28;20044;-48
2022/04/30 01:57:28;;;;;;;4.60;1.40;;;;;;;21.87;28.81;101508.03;5032609;28;20375;-48
2022/04/30 01:59:54;;;;;;;;;;;;;;;21.83;29.60;101513.22;5032854;28;20070;-47
2022/04/30 02:02:23;;;;;;;2.42;1.30;;;;;;;21.79;28.73;101509.38;5032545;28;20373;-48
2022/04/30 02:04:53;;;;;;;3.05;1.20;;;;;;;21.59;29.62;101514.69;5032497;28;20038;-46
2022/04/30 02:07:20;;;;;;;3.33;1.30;;;;;;;21.61;29.65;101507.91;5032712;28;20026;-47
2022/04/30 02:09:51;;;;;;;2.63;1.80;;;;;;;21.39;30.88;101504.50;5032501;28;20035;-45
2022/04/30 02:12:18;;;;;;;4.05;1.55;;;;;;;21.40;30.04;101508.06;5032407;28;20022;-45
2022/04/30 02:14:51;;;;;;;2.92;1.50;;;;;;;21.40;29.68;101508.88;5032247;28;20038;-46
2022/04/30 02:17:22;;;;;;;3.10;1.80;;;;;;;21.16;30.79;101513.84;5032641;28;20022;-49
2022/04/30 02:22:38;;;;;;;3.50;1.50;;;;;;;21.33;30.40;101525.44;5034912;28;20185;-46
2022/04/30 02:25:09;;;;;;;3.67;1.52;;;;;;;21.27;30.53;101514.75;5037112;28;20100;-46
2022/04/30 02:27:39;;;;;;;3.15;1.67;;;;;;;21.02;30.69;101508.00;5036558;28;20096;-46
2022/04/30 02:30:10;;;;;;;3.13;1.63;;;;;;;21.06;31.00;101502.88;5036212;28;20484;-46
2022/04/30 02:32:44;;;;;;;3.25;1.38;;;;;;;20.99;31.00;101505.00;5037289;28;20068;-48
2022/04/30 02:35:11;;;;;;;2.92;1.63;;;;;;;20.80;31.34;101496.38;5036176;28;20026;-47
2022/04/30 02:37:37;;;;;;;5.32;1.38;;;;;;;20.65;32.11;101505.22;5036811;28;20029;-46
2022/04/30 02:40:04;;;;;;;3.63;1.55;;;;;;;20.41;32.16;101509.28;5037110;28;20029;-46
2022/04/30 02:42:30;;;;;;;3.03;1.20;;;;;;;20.43;32.55;101498.97;5036112;28;20033;-48
2022/04/30 02:44:57;;;;;;;4.97;1.50;;;;;;;20.30;32.64;101502.91;5035864;28;20028;-46
2022/04/30 02:47:23;;;;;;;5.03;1.67;;;;;;;20.42;32.88;101513.63;5035723;28;20032;-49
2022/04/30 02:49:50;;;;;;;4.35;1.50;;;;;;;20.20;32.62;101508.22;5035754;28;20192;-46
2022/04/30 02:52:16;;;;;;;3.97;1.92;;;;;;;20.17;33.90;101500.59;5036098;28;20032;-48
2022/04/30 02:54:42;;;;;;;5.95;1.80;;;;;;;20.11;34.78;101502.44;5035638;28;20021;-45
2022/04/30 02:57:08;;;;;;;6.63;2.10;;;;;;;19.72;38.61;101502.47;5035579;28;20037;-46
2022/04/30 03:02:20;;;;;;;5.07;2.58;;;;;;;19.63;39.45;101514.84;5036374;28;20099;-46
2022/04/30 03:04:51;;;;;;;6.70;2.28;;;;;;;19.56;40.21;101511.44;5035538;28;20026;-48
2022/04/30 03:07:22;;;;;;;7.15;2.20;;;;;;;19.08;41.12;101520.19;5036086;28;20029;-47
2022/04/30 03:09:49;;;;;;;8.25;2.83;;;;;;;18.94;42.02;101519.69;5035543;28;20203;-47
2022/04/30 03:12:17;;;;;;;6.10;2.45;;;;;;;18.96;42.64;101517.53;5035372;28;20030;-46
2022/04/30 03:14:43;;;;;;;8.07;2.33;;;;;;;18.47;43.44;101525.31;5035636;28;20458;-46
2022/04/30 03:22:44;;;;;;;4.30;2.25;;;;;;;18.17;45.31;101515.50;5035818;28;20036;-47
2022/04/30 03:25:10;;;;;;;10.13;2.72;;;;;;;18.18;45.59;101516.34;5035363;28;20432;-46
2022/04/30 03:27:36;;;;;;;9.77;3.53;;;;;;;17.93;45.80;101524.72;5035239;28;20161;-46
2022/04/30 03:30:03;;;;;;;10.02;2.95;;;;;;;18.01;46.02;101527.09;5034862;28;20196;-46
2022/04/30 03:32:30;;;;;;;6.80;2.67;;;;;;;17.88;46.44;101530.06;5035090;28;20474;-47
2022/04/30 03:34:57;;;;;;;7.28;2.90;;;;;;;17.60;46.96;101539.72;5033827;28;20057;-45
2022/04/30 03:37:23;;;;;;;8.27;2.42;;;;;;;17.47;47.09;101539.09;5035335;28;20470;-45
2022/04/30 03:39:49;;;;;;;7.25;2.33;;;;;;;17.34;47.35;101538.28;5035314;28;20044;-48
2022/04/30 03:42:15;;;;;;;5.80;2.30;;;;;;;17.26;47.78;101540.50;5035105;28;20108;-45
2022/04/30 03:44:42;;;;;;;16.70;3.30;;;;;;;17.09;48.80;101540.34;5035203;28;20037;-46
2022/04/30 03:47:08;;;;;;;6.68;2.47;;;;;;;17.07;48.85;101542.47;5034912;28;20028;-45
2022/04/30 03:49:34;;;;;;;7.25;2.65;;;;;;;16.86;49.29;101546.53;5034925;28;20032;-46
2022/04/30 03:52:00;;;;;;;13.20;2.78;;;;;;;16.87;49.19;101548.16;5034854;28;20115;-46
2022/04/30 03:54:27;;;;;;;7.88;2.53;;;;;;;16.84;49.51;101554.88;5034882;28;20025;-45
2022/04/30 03:56:53;;;;;;;8.25;2.75;;;;;;;16.53;50.83;101552.34;5035145;28;20022;-46
2022/04/30 03:59:19;;;;;;;8.07;2.55;;;;;;;16.30;51.40;101558.47;5034820;28;20079;-46
2022/04/30 04:01:45;;;;;;;9.13;3.28;;;;;;;16.27;51.75;101557.06;5034479;28;20108;-45
2022/04/30 04:04:11;;;;;;;8.52;3.95;;;;;;;16.27;51.70;101553.53;5034332;28;20393;-46
2022/04/30 04:06:38;;;;;;;7.18;2.45;;;;;;;16.31;51.36;101568.22;5034554;28;20097;-46
2022/04/30 04:09:04;;;;;;;9.07;2.60;;;;;;;16.33;51.99;101563.44;5034584;28;20026;-46
2022/04/30 04:11:31;;;;;;;10.98;3.33;;;;;;;16.29;51.98;101567.63;5034564;28;20520;-45
2022/04/30 04:19:28;;;;;;;11.93;3.85;;;;;;;16.14;52.04;101561.78;5034751;28;20041;-46
2022/04/30 04:21:54;;;;;;;10.02;3.17;;;;;;;16.35;51.35;101572.13;5034566;28;20022;-48
2022/04/30 04:27:05;;;;;;;9.77;2.97;;;;;;;16.05;51.18;101569.38;5034429;28;20037;-47
2022/04/30 04:29:31;;;;;;;8.95;2.72;;;;;;;15.99;51.56;101567.53;5034076;28;20046;-46
2022/04/30 04:31:57;;;;;;;9.98;3.97;;;;;;;15.92;51.83;101570.31;5034338;28;20033;-45
2022/04/30 04:34:23;;;;;;;11.05;3.78;;;;;;;16.01;51.97;101579.78;5033797;28;20093;-45
2022/04/30 04:36:50;;;;;;;8.55;3.65;;;;;;;15.83;52.32;101572.50;5033691;28;20036;-46
2022/04/30 04:39:16;;;;;;;12.23;3.42;;;;;;;15.76;52.45;101573.59;5033757;28;20156;-45
2022/04/30 04:41:43;;;;;;;10.05;3.25;;;;;;;16.02;52.44;101572.50;5033841;28;20041;-45
2022/04/30 04:44:10;;;;;;;10.88;3.20;;;;;;;15.81;52.28;101579.97;5033783;28;20029;-48
2022/04/30 04:46:39;;;;;;;10.40;3.78;;;;;;;16.03;52.18;101572.25;5033304;28;20045;-47
2022/04/30 04:49:06;;;;;;;10.00;2.83;;;;;;;15.82;52.51;101584.34;5033935;28;20466;-48
2022/04/30 04:51:35;;;;;;;14.85;3.35;;;;;;;15.99;52.41;101576.50;5033402;28;20017;-47
2022/04/30 04:54:02;;;;;;;12.05;3.63;;;;;;;15.87;52.55;101583.66;5033364;28;20029;-48
2022/04/30 04:56:30;;;;;;;6.10;3.30;;;;;;;15.78;52.59;101585.81;5033688;28;20025;-47
2022/04/30 04:58:56;;;;;;;10.60;3.40;;;;;;;15.92;52.55;101583.00;5033568;28;20021;-47
2022/04/30 05:01:23;;;;;;;10.13;3.60;;;;;;;15.77;52.68;101592.28;5033691;28;20025;-49
2022/04/30 05:03:51;;;;;;;10.82;3.22;;;;;;;15.76;52.76;101585.19;5033698;28;20442;-48
2022/04/30 05:06:17;;;;;;;12.60;3.47;;;;;;;15.58;53.07;101579.75;5033442;28;20017;-47
2022/04/30 05:08:44;;;;;;;8.05;3.42;;;;;;;15.51;53.40;101587.91;5033146;28;20056;-48
2022/04/30 05:11:10;;;;;;;12.32;3.55;;;;;;;15.50;53.29;101588.13;5033107;28;20049;-46
2022/04/30 05:13:36;;;;;;;10.88;3.28;;;;;;;15.49;53.09;101587.31;5032934;28;20079;-46
2022/04/30 05:16:03;;;;;;;10.77;3.40;;;;;;;15.54;52.71;101587.44;5032723;28;20113;-45
2022/04/30 05:18:29;;;;;;;10.00;2.95;;;;;;;15.48;52.91;101592.91;5033304;28;20079;-46
2022/04/30 05:20:55;;;;;;;13.95;3.47;;;;;;;15.42;53.00;101600.00;5033016;28;20029;-46
2022/04/30 05:23:21;;;;;;;11.10;3.53;;;;;;;15.40;52.75;101604.81;5033644;28;20034;-45
2022/04/30 05:25:47;;;;;;;9.93;3.35;;;;;;;15.37;52.38;101596.31;5033659;28;20410;-48
2022/04/30 05:28:14;;;;;;;8.48;2.85;;;;;;;15.38;52.27;101600.66;5032917;28;20051;-47
2022/04/30 05:30:40;;;;;;;10.13;3.78;;;;;;;15.29;52.18;101600.13;5032767;28;20053;-45
2022/04/30 05:33:07;;;;;;;8.95;3.08;;;;;;;15.26;52.09;101592.44;5032795;28;20502;-48
2022/04/30 05:35:33;;;;;;;9.05;2.70;;;;;;;15.32;50.97;101583.47;5032815;28;20502;-47
2022/04/30 05:37:59;;;;;;;7.35;2.60;;;;;;;15.29;51.14;101594.72;5032678;28;20414;-49
2022/04/30 05:40:25;;;;;;;5.80;2.70;;;;;;;15.37;50.91;101594.44;5032859;28;20026;-46
2022/04/30 05:42:51;;;;;;;11.35;3.53;;;;;;;15.04;50.85;101595.50;5032790;28;20429;-48
2022/04/30 05:45:18;;;;;;;9.27;3.30;;;;;;;14.39;51.83;101599.31;5032608;28;20112;-48
2022/04/30 05:47:44;;;;;;;5.60;2.72;;;;;;;14.05;52.53;101589.66;5032704;28;20073;-48
2022/04/30 05:50:10;;;;;;;6.63;2.83;;;;;;;14.25;51.67;101593.13;5032481;28;20108;-46
2022/04/30 05:52:36;;;;;;;7.68;1.83;;;;;;;14.41;51.03;101594.53;5032639;28;20022;-47
2022/04/30 05:55:04;;;;;;;6.32;2.25;;;;;;;14.17;51.64;101596.09;5032540;28;20030;-49
2022/04/30 05:57:31;;;;;;;4.72;2.28;;;;;;;13.82;52.35;101595.50;5031479;28;20033;-49
2022/04/30 05:59:58;;;;;;;6.15;2.40;;;;;;;13.11;53.89;101596.94;5033162;28;20144;-48
2022/04/30 06:02:24;;;;;;;6.50;2.20;;;;;;;13.44;53.40;101601.53;5032495;28;20382;-49
2022/04/30 06:04:51;;;;;;;7.20;2.40;;;;;;;13.46;53.12;101584.16;5032447;28;20105;-48
2022/04/30 06:07:17;;;;;;;6.82;2.65;;;;;;;13.29;54.16;101596.34;5032549;28;20025;-46
2022/04/30 06:09:43;;;;;;;5.95;2.17;;;;;;;13.43;53.88;101602.56;5032524;28;20022;-48
2022/04/30 06:12:10;;;;;;;4.57;2.10;;;;;;;13.20;54.16;101592.16;5032749;28;20031;-47
2022/04/30 06:14:36;;;;;;;3.70;2.30;;;;;;;13.26;54.06;101596.75;5032514;28;20057;-47
2022/04/30 06:17:03;;;;;;;6.35;2.72;;;;;;;13.32;53.71;101587.03;5032221;28;20049;-48
2022/04/30 06:19:29;;;;;;;5.47;2.10;;;;;;;13.56;53.03;101593.69;5032481;28;20030;-48
2022/04/30 06:21:56;;;;;;;5.38;2.25;;;;;;;13.24;53.89;101598.81;5031234;28;20022;-49
2022/04/30 06:24:22;;;;;;;5.32;2.30;;;;;;;13.00;54.44;101592.16;5032498;28;20033;-49
2022/04/30 06:26:48;;;;;;;7.75;2.80;;;;;;;12.99;54.39;101587.78;5032815;28;20052;-47
2022/04/30 06:29:15;;;;;;;5.00;2.22;;;;;;;13.32;54.01;101597.78;5032290;28;20042;-46
2022/04/30 06:31:41;;;;;;;6.07;2.35;;;;;;;13.42;53.60;101585.59;5032399;28;20029;-46
2022/04/30 06:34:07;;;;;;;5.38;2.17;;;;;;;13.51;53.45;101591.59;5032257;28;20022;-47
2022/04/30 06:36:34;;;;;;;9.88;2.63;;;;;;;13.31;53.94;101590.75;5032679;28;20026;-47
2022/04/30 06:39:00;;;;;;;7.28;2.25;;;;;;;13.40;53.97;101584.16;5032176;28;20018;-46
2022/04/30 06:41:26;;;;;;;6.97;2.20;;;;;;;13.26;54.27;101583.31;5032030;28;20105;-47
2022/04/30 06:43:52;;;;;;;4.78;2.40;;;;;;;13.06;54.88;101583.28;5032314;28;20044;-49
2022/04/30 06:46:18;;;;;;;7.38;2.70;;;;;;;13.12;54.55;101587.81;5032179;28;20049;-48
2022/04/30 06:48:45;;;;;;;7.55;2.67;;;;;;;12.88;55.21;101588.38;5032812;28;20047;-46
2022/04/30 06:51:11;;;;;;;5.05;2.42;;;;;;;13.10;54.63;101589.91;5032015;28;20021;-49
2022/04/30 06:59:10;;;;;;;6.10;2.67;;;;;;;13.11;54.28;101583.50;5032772;28;20489;-48
2022/04/30 07:01:43;;;;;;;7.32;3.10;;;;;;;13.27;53.86;101597.56;5032276;28;20057;-47
2022/04/30 07:04:10;;;;;;;6.25;3.13;;;;;;;13.24;54.32;101600.69;5031965;28;20029;-48
2022/04/30 07:06:38;;;;;;;8.40;3.03;;;;;;;13.08;54.72;101596.50;5031983;28;20029;-48
2022/04/30 07:09:07;;;;;;;4.80;2.45;;;;;;;12.63;55.61;101597.00;5034511;28;20380;-46
2022/04/30 07:11:34;;;;;;;7.22;2.63;;;;;;;12.85;55.60;101605.75;5035558;28;20025;-48
2022/04/30 07:14:00;;;;;;;5.38;2.50;;;;;;;13.17;54.63;101606.03;5035477;28;20389;-48
2022/04/30 07:16:27;;;;;;;9.15;2.50;;;;;;;13.05;55.07;101602.28;5035113;28;20026;-47
2022/04/30 07:18:53;;;;;;;6.68;2.33;;;;;;;13.09;54.37;101588.22;5035059;28;20128;-49
2022/04/30 07:21:19;;;;;;;7.47;2.60;;;;;;;13.24;54.86;101601.50;5035413;28;20104;-46
2022/04/30 07:23:46;;;;;;;5.18;2.60;;;;;;;13.19;55.12;101601.25;5035360;28;20029;-45
2022/04/30 07:26:12;;;;;;;7.90;2.90;;;;;;;13.20;55.08;101602.91;5035151;28;20021;-46
2022/04/30 07:28:38;;;;;;;8.55;2.92;;;;;;;13.30;54.81;101606.06;5035333;28;20022;-45
2022/04/30 07:31:05;;;;;;;5.60;3.20;;;;;;;13.21;55.17;101607.28;5035599;28;20550;-48
2022/04/30 07:33:32;;;;;;;8.27;3.15;;;;;;;13.54;55.53;101610.00;5035342;28;20029;-45
2022/04/30 07:35:58;;;;;;;17.85;3.35;;;;;;;13.37;55.77;101608.75;5035167;28;20068;-46
2022/04/30 07:38:24;;;;;;;7.90;3.28;;;;;;;13.30;56.04;101608.75;5034989;28;20026;-46
2022/04/30 07:40:52;;;;;;;8.93;2.95;;;;;;;13.24;56.90;101604.19;5034947;28;20025;-45
2022/04/30 07:43:19;;;;;;;13.63;3.53;;;;;;;13.44;56.88;101609.63;5034876;28;20021;-46
2022/04/30 07:45:45;;;;;;;11.93;3.60;;;;;;;13.51;57.57;101606.91;5035166;28;20112;-48
2022/04/30 07:48:11;;;;;;;9.88;3.67;;;;;;;13.58;57.33;101605.06;5035252;28;20458;-46
2022/04/30 07:50:38;;;;;;;10.65;3.30;;;;;;;13.63;57.42;101618.72;5034869;28;20021;-47
2022/04/30 07:53:07;;;;;;;15.93;3.75;;;;;;;13.72;57.26;101614.78;5034598;28;20031;-47
2022/04/30 07:55:34;;;;;;;15.13;4.30;;;;;;;13.78;57.08;101616.63;5033651;28;20056;-47
2022/04/30 07:58:02;;;;;;;9.05;3.13;;;;;;;13.54;57.98;101618.06;5034555;28;20443;-45
2022/04/30 08:00:29;;;;;;;11.48;3.70;;;;;;;13.59;58.09;101620.16;5034563;28;20025;-47
2022/04/30 08:02:56;;;;;;;12.55;3.85;;;;;;;13.70;57.47;101622.22;5034743;28;20370;-47
2022/04/30 08:05:26;;;;;;;14.15;4.40;;;;;;;13.65;57.64;101619.31;5034613;28;20083;-47
2022/04/30 08:07:54;;;;;;;11.35;4.25;;;;;;;13.58;57.41;101623.88;5034668;28;20017;-45
2022/04/30 08:10:21;;;;;;;12.65;4.13;;;;;;;13.53;57.36;101619.13;5035188;28;20025;-48
2022/04/30 08:12:51;;;;;;;11.93;4.43;;;;;;;13.62;57.66;101614.38;5034532;28;20079;-45
2022/04/30 08:15:17;;;;;;;13.07;3.47;;;;;;;13.55;57.28;101626.97;5034701;28;20072;-45
2022/04/30 08:17:43;;;;;;;13.90;5.05;;;;;;;13.50;57.73;101627.63;5034433;28;20031;-45
2022/04/30 08:20:09;;;;;;;18.08;3.92;;;;;;;13.52;57.66;101616.63;5033435;28;20026;-46
2022/04/30 08:22:35;;;;;;;13.40;4.03;;;;;;;13.54;57.62;101622.63;5034323;28;20038;-46
2022/04/30 08:25:02;;;;;;;10.73;3.72;;;;;;;13.41;57.64;101616.22;5034408;28;20033;-48
2022/04/30 08:27:29;;;;;;;8.55;3.45;;;;;;;13.42;57.24;101623.25;5033981;28;20493;-46
2022/04/30 08:29:55;;;;;;;10.73;3.80;;;;;;;13.47;57.29;101618.06;5033891;28;20049;-47
2022/04/30 08:32:25;;;;;;;12.73;3.08;;;;;;;13.33;57.95;101611.06;5034114;28;20018;-45
2022/04/30 08:34:52;;;;;;;10.00;3.60;;;;;;;13.22;58.47;101608.97;5034015;28;20049;-46
2022/04/30 08:37:19;;;;;;;13.40;3.92;;;;;;;13.35;58.31;101610.84;5034519;28;20021;-46
2022/04/30 08:39:45;;;;;;;9.70;3.25;;;;;;;13.24;58.38;101608.75;5033967;28;20014;-47
2022/04/30 08:42:15;;;;;;;12.18;3.60;;;;;;;13.23;58.53;101609.78;5033994;28;20036;-47
2022/04/30 08:44:41;;;;;;;15.90;3.72;;;;;;;13.42;58.10;101604.41;5033614;28;20100;-48
2022/04/30 08:47:11;;;;;;;9.32;3.67;;;;;;;13.51;57.94;101606.91;5033499;28;20362;-47
2022/04/30 08:49:41;;;;;;;11.30;3.45;;;;;;;13.31;58.25;101612.28;5033589;28;20108;-49
2022/04/30 08:52:09;;;;;;;13.02;3.85;;;;;;;13.48;58.40;101608.97;5033888;28;20021;-45
2022/04/30 08:54:36;;;;;;;15.77;3.55;;;;;;;13.29;58.52;101604.41;5033358;28;20481;-46
2022/04/30 08:57:02;;;;;;;7.22;3.08;;;;;;;13.23;59.03;101597.19;5033636;28;20157;-47
2022/04/30 08:59:30;;;;;;;10.85;3.70;;;;;;;13.12;59.07;101603.13;5033720;28;20044;-49
2022/04/30 09:01:58;;;;;;;13.30;3.50;;;;;;;13.14;59.33;101596.50;5033568;28;20018;-45
2022/04/30 09:04:26;;;;;;;10.68;4.35;;;;;;;13.12;59.59;101592.38;5033623;28;20127;-47
2022/04/30 09:06:55;;;;;;;12.45;3.25;;;;;;;12.81;59.69;101587.53;5033296;28;20022;-50
2022/04/30 09:09:28;;;;;;;10.07;3.38;;;;;;;12.78;60.13;101585.28;5033738;28;20025;-46
2022/04/30 09:12:04;;;;;;;14.73;3.33;;;;;;;12.74;60.11;101579.47;5033780;28;20462;-46
2022/04/30 09:14:31;;;;;;;15.15;3.65;;;;;;;12.76;60.21;101580.09;5033902;28;20037;-46
2022/04/30 09:17:16;;;;;;;13.25;3.50;;;;;;;12.91;59.89;101585.28;5033423;28;20041;-47
2022/04/30 09:19:54;;;;;;;11.17;3.73;;;;;;;12.99;59.73;101584.28;5033003;28;20362;-45
2022/04/30 09:22:37;;;;;;;13.75;3.75;;;;;;;13.10;59.36;101578.28;5033022;28;20293;-46
2022/04/30 09:25:12;;;;;;;14.45;3.47;;;;;;;13.05;59.41;101578.09;5033666;28;20068;-46
2022/04/30 09:27:43;;;;;;;;;;;;;;;13.05;59.16;101581.63;5033609;28;20032;-50
2022/04/30 09:30:24;;;;;;;9.90;3.20;;;;;;;12.99;59.09;101579.72;5032738;28;19917;-49
2022/04/30 09:33:03;;;;;;;10.60;3.88;;;;;;;13.02;58.91;101578.50;5032752;28;20034;-48
2022/04/30 09:38:16;;;;;;;11.88;3.55;;;;;;;13.01;59.58;101576.84;5033365;28;20041;-48
2022/04/30 09:40:57;;;;;;;10.30;3.65;;;;;;;13.12;58.80;101582.44;5032804;28;20036;-46
2022/04/30 09:43:34;;;;;;;9.07;3.22;;;;;;;12.89;59.38;101582.81;5032408;28;20117;-46
2022/04/30 09:46:03;;;;;;;8.60;3.17;;;;;;;13.16;58.65;101583.69;5032763;28;20033;-47
2022/04/30 09:54:03;;;;;;;13.68;3.20;;;;;;;12.98;58.83;101583.44;5032963;28;20029;-45
2022/04/30 09:56:37;;;;;;;8.27;3.83;;;;;;;12.88;59.03;101581.16;5032605;28;20068;-46
2022/04/30 09:59:10;;;;;;;10.20;3.35;;;;;;;12.97;58.98;101579.09;5032860;28;20024;-46
2022/04/30 10:01:41;;;;;;;8.48;3.40;;;;;;;12.99;59.24;101587.78;5032688;28;20022;-46
2022/04/30 10:04:09;;;;;;;12.05;3.47;;;;;;;12.93;59.29;101581.34;5032798;28;20159;-47
2022/04/30 10:06:40;;;;;;;11.05;4.22;;;;;;;13.00;58.97;101584.09;5032406;28;20029;-46
2022/04/30 10:09:14;;;;;;;13.00;4.63;;;;;;;12.95;59.48;101579.31;5032614;28;20102;-48
2022/04/30 10:12:01;;;;;;;10.55;4.15;;;;;;;12.90;59.57;101573.72;5032964;28;20033;-47
2022/04/30 10:14:52;;;;;;;9.20;3.30;;;;;;;12.89;59.78;101577.44;5032376;28;20032;-46
2022/04/30 10:17:27;;;;;;;9.13;3.10;;;;;;;12.73;60.49;101572.44;5032322;28;20030;-46
2022/04/30 10:20:07;;;;;;;9.30;3.60;;;;;;;12.68;60.43;101564.97;5032093;28;20033;-47
2022/04/30 10:22:35;;;;;;;13.18;3.60;;;;;;;12.60;60.68;101578.59;5032449;28;20084;-45
2022/04/30 10:25:02;;;;;;;10.57;3.50;;;;;;;12.46;60.86;101568.00;5033057;28;20022;-46
2022/04/30 10:27:40;;;;;;;12.75;4.10;;;;;;;12.48;60.67;101569.44;5032159;28;20135;-49
2022/04/30 10:30:16;;;;;;;9.77;3.20;;;;;;;12.61;60.32;101568.69;5032114;28;20072;-46
2022/04/30 10:32:43;;;;;;;9.90;3.42;;;;;;;12.38;60.60;101553.75;5032530;28;20107;-46
2022/04/30 10:35:09;;;;;;;8.15;3.13;;;;;;;12.32;60.75;101564.41;5032393;28;20025;-46
2022/04/30 10:37:37;;;;;;;10.48;3.55;;;;;;;12.52;60.28;101561.84;5032226;28;20455;-46
2022/04/30 10:40:10;;;;;;;14.00;3.70;;;;;;;12.38;60.67;101564.47;5032337;28;20025;-46
2022/04/30 10:42:44;;;;;;;14.27;3.10;;;;;;;12.34;61.36;101565.91;5032885;28;20071;-46
2022/04/30 10:45:15;;;;;;;11.82;3.25;;;;;;;12.46;60.70;101565.31;5036190;28;20030;-47
2022/04/30 10:47:53;;;;;;;8.50;3.63;;;;;;;12.45;60.70;101563.66;5035963;28;20033;-46
2022/04/30 10:50:20;;;;;;;9.25;3.17;;;;;;;12.64;60.30;101557.53;5035832;28;20053;-50
2022/04/30 10:52:49;;;;;;;7.60;3.00;;;;;;;12.55;60.29;101559.59;5035808;28;20071;-49
2022/04/30 10:55:17;;;;;;;11.60;3.00;;;;;;;12.46;60.32;101568.84;5035846;28;20026;-48
2022/04/30 10:57:45;;;;;;;7.88;3.25;;;;;;;12.38;60.52;101552.88;5036422;28;20033;-46
2022/04/30 11:00:12;;;;;;;11.63;3.40;;;;;;;12.43;60.47;101561.16;5035929;28;20082;-46
2022/04/30 11:02:39;;;;;;;9.02;2.83;;;;;;;12.49;59.98;101570.28;5035802;28;20026;-48
2022/04/30 11:05:17;;;;;;;11.27;3.15;;;;;;;12.34;61.01;101562.38;5035502;28;20061;-48
2022/04/30 11:07:44;;;;;;;10.40;3.10;;;;;;;12.45;60.41;101561.81;5035732;28;20025;-47
2022/04/30 11:10:11;;;;;;;9.25;3.20;;;;;;;12.40;60.46;101561.59;5035515;28;20026;-46
2022/04/30 11:12:37;;;;;;;10.75;3.97;;;;;;;12.54;60.15;101562.44;5035742;28;20047;-46
2022/04/30 11:15:04;;;;;;;10.48;3.55;;;;;;;12.47;59.83;101565.13;5035843;28;20039;-49
2022/04/30 11:17:30;;;;;;;10.68;2.97;;;;;;;12.42;60.51;101565.72;5035754;28;20037;-47
2022/04/30 11:19:56;;;;;;;9.20;3.25;;;;;;;12.31;60.44;101563.59;5035605;28;20367;-50
2022/04/30 11:22:23;;;;;;;11.82;4.00;;;;;;;12.33;60.39;101563.41;5035294;28;20113;-48
2022/04/30 11:24:50;;;;;;;9.00;3.20;;;;;;;12.35;60.31;101567.53;5035450;28;20033;-46
2022/04/30 11:27:16;;;;;;;7.38;3.08;;;;;;;12.34;60.39;101565.91;5035578;28;20104;-48
2022/04/30 11:29:53;;;;;;;10.55;2.88;;;;;;;12.47;60.17;101562.44;5035103;28;20060;-45
2022/04/30 11:32:23;;;;;;;13.10;2.97;;;;;;;12.28;60.72;101558.66;5035271;28;20030;-46
2022/04/30 11:34:53;;;;;;;13.38;3.05;;;;;;;12.40;60.32;101550.84;5035304;28;20025;-46
2022/04/30 11:37:19;;;;;;;9.32;2.83;;;;;;;12.39;60.15;101550.00;5035185;28;20068;-46
2022/04/30 11:39:45;;;;;;;7.93;2.53;;;;;;;12.34;60.07;101565.91;5035156;28;20014;-47
2022/04/30 11:42:12;;;;;;;8.80;2.45;;;;;;;12.29;60.02;101560.28;5035252;28;20036;-47
2022/04/30 11:44:38;;;;;;;11.38;2.90;;;;;;;12.28;59.89;101563.19;5035160;28;20021;-47
2022/04/30 11:47:11;;;;;;;5.68;2.90;;;;;;;12.41;60.06;101553.31;5034855;28;20029;-49
2022/04/30 11:49:38;;;;;;;10.35;3.05;;;;;;;12.51;60.18;101557.50;5035893;28;20037;-46
2022/04/30 11:52:06;;;;;;;11.30;2.90;;;;;;;12.41;60.72;101557.88;5034995;28;20029;-46
2022/04/30 11:54:38;;;;;;;8.93;3.33;;;;;;;12.34;61.61;101573.94;5033748;28;20030;-46
2022/04/30 11:57:05;;;;;;;6.50;2.58;;;;;;;12.36;61.24;101563.81;5034738;28;20032;-48
2022/04/30 11:59:32;;;;;;;8.52;3.08;;;;;;;12.22;61.86;101559.44;5034982;28;20028;-48
2022/04/30 12:02:08;;;;;;;7.03;2.38;;;;;;;12.45;61.45;101566.34;5034577;28;20381;-47
2022/04/30 12:04:34;;;;;;;;;;;;;;;12.33;61.72;101560.75;5035234;28;20029;-47
2022/04/30 12:07:03;;;;;;;11.57;2.40;;;;;;;12.32;61.18;101559.88;5034462;28;20296;-46